createdAt,value
2019-03-10T00:03:14.634Z,11.60
2019-03-10T00:08:22.613Z,11.60
2019-03-10T00:13:30.796Z,11.40
2019-03-10T00:18:38.708Z,11.20
2019-03-10T00:23:45.038Z,11.00
2019-03-10T00:28:52.042Z,11.10
2019-03-10T00:33:59.715Z,11.10
2019-03-10T00:39:41.728Z,10.70
2019-03-10T00:45:27.953Z,10.90
2019-03-10T00:51:09.808Z,11.40
2019-03-10T00:56:18.000Z,11.60
2019-03-10T01:01:24.225Z,11.40
2019-03-10T01:06:31.728Z,11.40
2019-03-10T01:11:40.161Z,11.50
2019-03-10T01:16:47.478Z,11.20
2019-03-10T01:21:56.839Z,11.40
2019-03-10T01:27:03.555Z,11.20
2019-03-10T01:32:37.887Z,11.00
2019-03-10T01:37:43.883Z,10.80
2019-03-10T01:42:52.135Z,10.70
2019-03-10T01:48:00.375Z,10.50
2019-03-10T01:53:06.631Z,10.50
2019-03-10T01:58:12.731Z,10.70
2019-03-10T02:03:20.564Z,10.90
2019-03-10T02:08:28.334Z,11.10
2019-03-10T02:13:34.246Z,10.90
2019-03-10T02:18:41.237Z,10.70
2019-03-10T02:23:50.253Z,10.60
2019-03-10T02:28:56.571Z,10.30
2019-03-10T02:34:02.586Z,10.40
2019-03-10T02:39:09.955Z,10.40
2019-03-10T02:44:17.105Z,10.40
2019-03-10T02:49:23.002Z,10.20
2019-03-10T02:54:29.561Z,10.00
2019-03-10T02:59:36.007Z,9.90
2019-03-10T03:04:42.554Z,9.80
2019-03-10T03:09:51.349Z,10.10
2019-03-10T03:14:59.363Z,10.20
2019-03-10T03:20:07.166Z,10.20
2019-03-10T03:25:13.383Z,10.00
2019-03-10T03:30:21.241Z,10.00
2019-03-10T03:36:04.608Z,9.60
2019-03-10T03:41:14.083Z,9.30
2019-03-10T03:46:22.134Z,9.40
2019-03-10T03:51:28.268Z,9.70
2019-03-10T03:56:34.613Z,9.70
2019-03-10T04:01:51.123Z,9.70
2019-03-10T04:06:58.924Z,9.90
2019-03-10T04:12:05.003Z,9.50
2019-03-10T04:17:12.650Z,9.80
2019-03-10T04:22:19.653Z,9.70
2019-03-10T04:27:27.951Z,10.50
2019-03-10T04:32:35.352Z,10.90
2019-03-10T04:37:42.579Z,11.10
2019-03-10T04:42:50.231Z,10.90
2019-03-10T04:47:57.398Z,10.10
2019-03-10T04:53:03.526Z,9.70
2019-03-10T04:58:13.884Z,9.80
2019-03-10T05:03:20.922Z,10.10
2019-03-10T05:08:28.778Z,9.80
2019-03-10T05:13:35.613Z,9.70
2019-03-10T05:18:42.887Z,9.60
2019-03-10T05:23:50.611Z,9.50
2019-03-10T05:28:58.657Z,9.40
2019-03-10T05:34:05.749Z,9.50
2019-03-10T05:39:12.996Z,9.50
2019-03-10T05:44:21.131Z,9.50
2019-03-10T05:49:29.300Z,9.60
2019-03-10T05:54:36.624Z,9.90
2019-03-10T05:59:42.850Z,9.80
2019-03-10T06:04:50.467Z,10.20
2019-03-10T06:09:58.213Z,10.50
2019-03-10T06:15:04.700Z,11.00
2019-03-10T06:20:11.451Z,11.00
2019-03-10T06:25:17.724Z,11.10
2019-03-10T06:30:24.382Z,11.40
2019-03-10T06:35:31.451Z,11.40
2019-03-10T06:40:39.463Z,11.10
2019-03-10T06:45:47.832Z,11.10
2019-03-10T06:50:54.903Z,11.00
2019-03-10T06:56:02.730Z,11.10
2019-03-10T07:01:10.739Z,11.90
2019-03-10T07:06:18.803Z,12.40
2019-03-10T07:11:25.099Z,12.50
2019-03-10T07:16:32.289Z,12.50
2019-03-10T07:21:40.163Z,12.90
2019-03-10T07:26:46.751Z,13.70
2019-03-10T07:32:30.734Z,13.70
2019-03-10T07:37:53.707Z,13.80
2019-03-10T07:43:17.114Z,13.80
2019-03-10T07:48:38.956Z,14.00
2019-03-10T07:54:13.418Z,14.50
2019-03-10T07:59:39.615Z,15.00
2019-03-10T08:04:58.004Z,15.10
2019-03-10T08:10:21.754Z,15.30
2019-03-10T08:15:54.550Z,15.30
2019-03-10T08:21:20.047Z,15.40
2019-03-10T08:26:47.024Z,15.70
2019-03-10T08:32:10.522Z,15.80
2019-03-10T08:37:36.963Z,16.00
2019-03-10T08:43:05.219Z,16.40
2019-03-10T08:48:26.334Z,16.60
2019-03-10T08:53:54.784Z,16.80
2019-03-10T08:59:23.691Z,16.40
2019-03-10T09:04:49.135Z,16.40
2019-03-10T09:10:14.160Z,16.80
2019-03-10T09:15:41.037Z,17.00
2019-03-10T09:21:13.399Z,17.50
2019-03-10T09:26:49.447Z,17.80
2019-03-10T09:32:14.270Z,18.20
2019-03-10T09:37:33.981Z,18.50
2019-03-10T09:43:03.905Z,18.80
2019-03-10T09:48:39.400Z,19.50
2019-03-10T09:54:19.990Z,19.40
2019-03-10T09:59:43.226Z,19.00
2019-03-10T10:05:15.930Z,18.70
2019-03-10T10:10:40.248Z,18.70
2019-03-10T10:16:05.711Z,19.00
2019-03-10T10:21:32.434Z,19.30
2019-03-10T10:27:02.343Z,19.80
2019-03-10T10:32:37.425Z,20.50
2019-03-10T10:38:01.297Z,20.90
2019-03-10T10:43:36.927Z,20.70
2019-03-10T10:48:58.551Z,19.20
2019-03-10T10:54:26.291Z,18.60
2019-03-10T11:00:03.726Z,18.70
2019-03-10T11:05:32.560Z,18.70
2019-03-10T11:10:52.376Z,18.80
2019-03-10T11:16:06.732Z,19.30
2019-03-10T11:21:34.871Z,19.50
2019-03-10T11:27:09.344Z,19.60
2019-03-10T11:32:36.430Z,19.60
2019-03-10T11:38:05.751Z,19.90
2019-03-10T11:43:31.422Z,20.30
2019-03-10T11:48:58.273Z,21.00
2019-03-10T11:54:35.851Z,21.00
2019-03-10T11:59:46.924Z,21.20
2019-03-10T12:05:10.288Z,20.70
2019-03-10T12:10:16.846Z,21.00
2019-03-10T12:15:23.244Z,21.80
2019-03-10T12:20:30.653Z,21.60
2019-03-10T12:25:38.888Z,21.60
2019-03-10T12:30:45.255Z,21.90
2019-03-10T12:35:53.162Z,20.80
2019-03-10T12:41:01.148Z,21.00
2019-03-10T12:46:08.954Z,21.10
2019-03-10T12:51:16.127Z,21.80
2019-03-10T12:56:23.070Z,21.00
2019-03-10T13:01:29.670Z,20.90
2019-03-10T13:06:38.001Z,21.30
2019-03-10T13:11:44.580Z,21.70
2019-03-10T13:16:52.050Z,21.50
2019-03-10T13:21:59.964Z,22.40
2019-03-10T13:27:06.519Z,22.50
2019-03-10T13:32:14.558Z,22.50
2019-03-10T13:37:21.890Z,21.10
2019-03-10T13:42:29.826Z,21.40
2019-03-10T13:47:38.012Z,21.80
2019-03-10T13:52:44.734Z,21.90
2019-03-10T13:57:52.215Z,21.80
2019-03-10T14:03:00.347Z,22.30
2019-03-10T14:08:08.364Z,21.90
2019-03-10T14:13:15.395Z,22.00
2019-03-10T14:18:22.446Z,22.00
2019-03-10T14:23:30.374Z,22.40
2019-03-10T14:28:37.806Z,22.40
2019-03-10T14:33:44.115Z,21.40
2019-03-10T14:38:52.006Z,22.50
2019-03-10T14:43:59.242Z,22.10
2019-03-10T14:49:06.260Z,22.70
2019-03-10T14:54:12.503Z,23.10
2019-03-10T14:59:20.404Z,24.20
2019-03-10T15:04:29.286Z,23.70
2019-03-10T15:09:37.236Z,24.20
2019-03-10T15:14:43.523Z,24.10
2019-03-10T15:19:51.487Z,24.80
2019-03-10T15:24:59.501Z,25.30
2019-03-10T15:30:09.472Z,24.60
2019-03-10T15:35:16.990Z,25.10
2019-03-10T15:40:24.217Z,24.50
2019-03-10T15:45:30.692Z,24.20
2019-03-10T15:50:38.799Z,23.90
2019-03-10T15:55:45.030Z,24.40
2019-03-10T16:00:53.152Z,24.30
2019-03-10T16:05:59.768Z,23.80
2019-03-10T16:11:06.924Z,23.70
2019-03-10T16:16:13.171Z,23.80
2019-03-10T16:21:20.555Z,23.30
2019-03-10T16:26:28.599Z,21.80
2019-03-10T16:31:34.874Z,20.60
2019-03-10T16:36:41.939Z,19.90
2019-03-10T16:41:48.535Z,19.40
2019-03-10T16:46:55.202Z,19.50
2019-03-10T16:52:04.996Z,19.70
2019-03-10T16:57:12.543Z,19.80
2019-03-10T17:02:19.180Z,19.30
2019-03-10T17:07:26.892Z,19.10
2019-03-10T17:12:35.193Z,18.30
2019-03-10T17:17:42.694Z,18.20
2019-03-10T17:22:50.874Z,18.20
2019-03-10T17:27:57.464Z,18.00
2019-03-10T17:33:04.658Z,17.60
2019-03-10T17:38:12.595Z,17.40
2019-03-10T17:43:21.427Z,17.60
2019-03-10T17:48:29.289Z,17.50
2019-03-10T17:53:35.419Z,17.20
2019-03-10T17:58:42.847Z,17.10
2019-03-10T18:03:50.734Z,17.00
2019-03-10T18:08:58.895Z,16.70
2019-03-10T18:14:05.056Z,16.80
2019-03-10T18:19:12.724Z,16.70
2019-03-10T18:24:19.846Z,16.70
2019-03-10T18:29:26.991Z,16.50
2019-03-10T18:34:33.476Z,16.50
2019-03-10T18:39:41.404Z,16.40
2019-03-10T18:44:50.044Z,16.30
2019-03-10T18:49:58.109Z,16.30
2019-03-10T18:55:04.620Z,16.50
2019-03-10T19:00:15.795Z,16.40
2019-03-10T19:05:23.353Z,16.30
2019-03-10T19:10:29.838Z,16.20
2019-03-10T19:15:37.039Z,16.10
2019-03-10T19:20:44.516Z,16.10
2019-03-10T19:25:52.153Z,16.10
2019-03-10T19:31:00.360Z,16.00
2019-03-10T19:36:07.567Z,16.00
2019-03-10T19:41:13.868Z,16.00
2019-03-10T19:46:21.976Z,15.80
2019-03-10T19:51:29.895Z,15.90
2019-03-10T19:56:36.841Z,15.80
2019-03-10T20:01:43.695Z,15.70
2019-03-10T20:06:50.275Z,15.70
2019-03-10T20:11:57.944Z,15.60
2019-03-10T20:17:03.970Z,15.30
2019-03-10T20:22:12.001Z,14.90
2019-03-10T20:27:19.824Z,14.50
2019-03-10T20:32:27.476Z,14.40
2019-03-10T20:37:33.670Z,14.20
2019-03-10T20:42:41.265Z,14.10
2019-03-10T20:47:50.126Z,14.30
2019-03-10T20:52:58.229Z,14.10
2019-03-10T20:58:04.564Z,14.00
2019-03-10T21:03:10.929Z,13.80
2019-03-10T21:08:18.859Z,13.70
2019-03-10T21:13:26.696Z,13.70
2019-03-10T21:18:37.828Z,13.90
2019-03-10T21:23:44.594Z,13.70
2019-03-10T21:28:52.890Z,13.60
2019-03-10T21:34:00.911Z,13.60
2019-03-10T21:39:09.028Z,13.40
2019-03-10T21:44:26.199Z,13.20
2019-03-10T21:49:25.422Z,13.20
2019-03-10T21:54:32.780Z,13.30
2019-03-10T21:59:39.426Z,13.10
2019-03-10T22:04:45.779Z,13.00
2019-03-10T22:09:52.532Z,12.90
2019-03-10T22:15:01.430Z,12.90
2019-03-10T22:20:14.031Z,12.90
2019-03-10T22:25:21.568Z,12.90
2019-03-10T22:30:29.342Z,12.60
2019-03-10T22:35:38.061Z,12.50
2019-03-10T22:40:44.373Z,12.30
2019-03-10T22:45:51.339Z,12.20
2019-03-10T22:50:59.861Z,12.30
2019-03-10T22:56:07.710Z,12.20
2019-03-10T23:01:14.039Z,11.90
2019-03-10T23:06:21.319Z,12.20
2019-03-10T23:11:29.552Z,12.40
2019-03-10T23:16:36.601Z,12.10
2019-03-10T23:21:42.876Z,12.10
2019-03-10T23:26:49.683Z,12.10
2019-03-10T23:31:56.098Z,11.80
2019-03-10T23:37:02.666Z,11.80
2019-03-10T23:42:11.603Z,11.60
2019-03-10T23:47:17.880Z,11.50
2019-03-10T23:52:24.486Z,11.60
2019-03-10T23:57:31.628Z,11.50
